Terminal Aerodrome Forecast
Issued by NWS

Home | Current Version | Previous Version | Text Only | Print | Product List | Glossary On
Versions: 1 2 3 4 5 6 7 8 9 10 11 12 13 14 15 16 17 18 19 20 21 22 23 24 25 26 27 28 29 30
000
FTUS42 KGSP 301120
TAFHKY
TAF
KHKY 301120Z 3012/0112 24003KT P6SM SCT060
     FM301600 24006KT P6SM BKN060
      TEMPO 3018/3021 4SM TSRA BKN040CB
     FM302100 23009G18KT P6SM BKN060 PROB30 3021/0101 4SM TSRA
      BKN040CB
     FM010200 26005KT P6SM BKN050
     FM010800 26003KT P6SM SCT050=

USA.gov is the U.S. government's official web portal to all federal, state and local government web resources and services.